La Mesa, California
Current Conditions -  °F | °C
As of 6:53 PM on Thursday 18 Dec 2014 (Local Time) from KMYF Reporting Station
Overcast Overcast  
Wind Chill: 60°   Ceiling: 7000
Heat Index: 60°   Visibility: 10mi
Dew Point: 50°   Wind: 3mph
Humidity: 69%   Direction: 320°NW
Pressure: 30.2"   Gusts: NA
Location:  32.77°N, 117.02°W
Report Text: KMYF 190253Z AUTO 32003KT 10SM OVC070 16/10 A3020 RMK AO2 SLP225 T01560100 53016 TSNO
Loading
Personal Weather Stations






























Interactive Weather Map New forecast layout! Learn more

10-Day Weather Forecast

Advertisements
Track Severe Weather on mobile